KIEN

Pine Ridge Airport

Pine Ridge, South Dakota, USA
METAR KIEN 190452Z AUTO 09012G17KT 9SM FEW090 SCT110 18/14 A2991 RMK AO2 SLP105 T01780139
Observed Flight Rules
Sep-19 @ 04:52 UTC (40 minutes ago) Visual Flight Rules
Wind Visibility Clouds
90° at 12 knots
 Gusting to 17 knots
9 miles
  • Few at 9,000' AGL
  • Scattered at 11,000' AGL
Temperatures Readings
Current 18°C / 64°F
Dewpoint 14°C / 57°F
Humidity 78%
Altimeter 29.91" Hg
Pressure 1010.5 hPa
Elevation 998
METAR KIEN 190452Z AUTO 09012G17KT 9SM FEW090 SCT110 18/14 A2991 RMK AO2 SLP105 T01780139
Observed Flight Rules
Sep-19 @ 04:52 UTC
(40 minutes ago)
VFR
Wind Visibility
90° at 12 knots
 Gusting to 17 knots
9 miles
Clouds
  • Few at 9,000' AGL
  • Scattered at 11,000' AGL
Temperature Dewpoint
18°C / 64°F 14°C / 57°F
Humidity Altimeter Pressure
78% 29.91" Hg 1010.5 hPa